createdAt,value
2018-04-17T00:01:53.089Z,77.20
2018-04-17T00:04:20.644Z,77.40
2018-04-17T00:06:48.180Z,77.60
2018-04-17T00:09:15.733Z,77.00
2018-04-17T00:11:43.260Z,76.70
2018-04-17T00:14:10.803Z,76.70
2018-04-17T00:16:39.089Z,76.90
2018-04-17T00:19:06.641Z,76.90
2018-04-17T00:21:34.932Z,78.00
2018-04-17T00:24:02.490Z,77.90
2018-04-17T00:26:30.020Z,78.00
2018-04-17T00:28:57.577Z,78.10
2018-04-17T00:31:25.105Z,78.10
2018-04-17T00:33:52.628Z,77.20
2018-04-17T00:36:21.222Z,77.60
2018-04-17T00:38:50.335Z,78.10
2018-04-17T00:41:19.202Z,78.20
2018-04-17T00:43:48.080Z,78.50
2018-04-17T00:46:17.168Z,77.60
2018-04-17T00:48:45.752Z,77.50
2018-04-17T00:51:15.098Z,78.50
2018-04-17T00:53:53.700Z,78.40
2018-04-17T00:56:21.255Z,78.40
2018-04-17T00:58:48.780Z,78.40
2018-04-17T01:01:16.327Z,78.50
2018-04-17T01:03:43.851Z,78.50
2018-04-17T01:06:11.415Z,78.60
2018-04-17T01:08:38.939Z,78.70
2018-04-17T01:11:07.260Z,78.40
2018-04-17T01:13:34.775Z,78.40
2018-04-17T01:16:03.090Z,77.90
2018-04-17T01:18:30.608Z,77.80
2018-04-17T01:20:58.927Z,77.50
2018-04-17T01:23:26.451Z,77.50
2018-04-17T01:25:54.768Z,77.70
2018-04-17T01:28:22.290Z,77.70
2018-04-17T01:30:50.604Z,78.10
2018-04-17T01:33:18.124Z,78.00
2018-04-17T01:35:46.437Z,78.40
2018-04-17T01:38:13.960Z,78.40
2018-04-17T01:40:42.244Z,78.80
2018-04-17T01:43:10.547Z,79.10
2018-04-17T01:45:38.088Z,79.00
2018-04-17T01:48:06.397Z,79.20
2018-04-17T01:50:33.921Z,79.10
2018-04-17T01:53:02.231Z,79.40
2018-04-17T01:55:29.749Z,79.30
2018-04-17T01:57:57.284Z,79.60
2018-04-17T02:00:24.800Z,80.10
2018-04-17T02:02:53.189Z,78.40
2018-04-17T02:05:20.708Z,78.50
2018-04-17T02:07:48.248Z,78.30
2018-04-17T02:10:15.773Z,78.60
2018-04-17T02:12:43.311Z,79.00
2018-04-17T02:15:10.828Z,79.40
2018-04-17T02:17:38.368Z,79.00
2018-04-17T02:20:05.889Z,78.40
2018-04-17T02:22:33.432Z,78.50
2018-04-17T02:25:01.708Z,78.20
2018-04-17T02:27:30.022Z,78.70
2018-04-17T02:29:57.539Z,78.70
2018-04-17T02:32:25.084Z,79.00
2018-04-17T02:34:52.607Z,79.00
2018-04-17T02:37:20.152Z,79.90
2018-04-17T02:39:47.668Z,80.50
2018-04-17T02:42:15.190Z,80.80
2018-04-17T02:44:42.730Z,79.70
2018-04-17T02:47:10.265Z,79.70
2018-04-17T02:49:38.573Z,79.90
2018-04-17T02:52:06.092Z,79.80
2018-04-17T02:54:33.636Z,79.60
2018-04-17T02:57:01.152Z,79.70
2018-04-17T02:59:28.689Z,79.90
2018-04-17T03:01:56.969Z,81.00
2018-04-17T03:04:25.278Z,80.60
2018-04-17T03:06:52.796Z,80.50
2018-04-17T03:09:21.113Z,80.70
2018-04-17T03:11:48.636Z,80.60
2018-04-17T03:14:16.944Z,81.50
2018-04-17T03:16:44.468Z,81.40
2018-04-17T03:19:12.770Z,80.70
2018-04-17T03:21:40.308Z,80.70
2018-04-17T03:24:08.612Z,81.60
2018-04-17T03:26:36.131Z,81.60
2018-04-17T03:29:03.677Z,81.80
2018-04-17T03:31:31.195Z,81.90
2018-04-17T03:33:58.745Z,81.50
2018-04-17T03:36:26.266Z,81.10
2018-04-17T03:38:53.808Z,81.30
2018-04-17T03:41:21.334Z,80.90
2018-04-17T03:43:48.852Z,81.20
2018-04-17T03:46:16.401Z,80.70
2018-04-17T03:48:43.916Z,80.20
2018-04-17T03:51:11.456Z,80.80
2018-04-17T03:53:39.741Z,80.80
2018-04-17T03:56:07.277Z,80.80
2018-04-17T03:58:35.561Z,80.90
2018-04-17T04:01:03.869Z,81.30
2018-04-17T04:03:31.398Z,81.30
2018-04-17T04:05:59.709Z,81.70
2018-04-17T04:08:27.219Z,81.60
2018-04-17T04:10:54.756Z,81.60
2018-04-17T04:13:22.272Z,81.50
2018-04-17T04:15:49.819Z,81.70
2018-04-17T04:18:29.887Z,81.80
2018-04-17T04:21:09.303Z,81.70
2018-04-17T04:23:49.400Z,82.10
2018-04-17T04:26:28.920Z,82.10
2018-04-17T04:28:56.439Z,82.10
2018-04-17T04:31:23.987Z,82.30
2018-04-17T04:33:51.509Z,82.50
2018-04-17T04:36:19.056Z,82.10
2018-04-17T04:38:46.577Z,82.40
2018-04-17T04:41:14.133Z,82.40
2018-04-17T04:43:41.652Z,82.90
2018-04-17T04:46:09.247Z,82.70
2018-04-17T04:48:36.771Z,82.40
2018-04-17T04:51:04.867Z,82.60
2018-04-17T04:53:32.887Z,83.30
2018-04-17T04:56:00.546Z,83.40
2018-04-17T04:58:28.924Z,83.10
2018-04-17T05:00:57.204Z,83.40
2018-04-17T05:03:25.519Z,83.60
2018-04-17T05:05:53.039Z,83.60
2018-04-17T05:08:21.369Z,84.30
2018-04-17T05:10:48.889Z,84.20
2018-04-17T05:13:17.209Z,83.60
2018-04-17T05:15:44.732Z,83.60
2018-04-17T05:18:12.285Z,83.60
2018-04-17T05:20:40.621Z,83.90
2018-04-17T05:23:08.173Z,83.90
2018-04-17T05:25:35.696Z,84.00
2018-04-17T05:28:03.240Z,84.00
2018-04-17T05:30:30.778Z,83.50
2018-04-17T05:32:58.329Z,83.50
2018-04-17T05:35:25.853Z,83.70
2018-04-17T05:37:53.413Z,83.90
2018-04-17T05:40:20.932Z,82.30
2018-04-17T05:42:49.246Z,84.10
2018-04-17T05:45:16.788Z,84.10
2018-04-17T05:47:45.095Z,84.50
2018-04-17T05:50:12.643Z,84.40
2018-04-17T05:52:40.200Z,84.50
2018-04-17T05:55:07.724Z,84.70
2018-04-17T05:57:35.274Z,84.70
2018-04-17T06:00:02.805Z,84.70
2018-04-17T06:02:30.348Z,84.70
2018-04-17T06:04:57.867Z,84.70
2018-04-17T06:07:26.155Z,84.50
2018-04-17T06:09:54.476Z,84.50
2018-04-17T06:12:22.000Z,84.40
2018-04-17T06:14:49.547Z,84.50
2018-04-17T06:17:17.833Z,84.60
2018-04-17T06:19:46.145Z,84.50
2018-04-17T06:22:13.664Z,84.50
2018-04-17T06:24:41.208Z,84.40
2018-04-17T06:27:08.730Z,84.50
2018-04-17T06:29:36.273Z,84.60
2018-04-17T06:32:03.799Z,84.50
2018-04-17T06:34:32.116Z,84.50
2018-04-17T06:36:59.632Z,84.40
2018-04-17T06:39:27.952Z,85.10
2018-04-17T06:41:55.512Z,85.00
2018-04-17T06:44:23.053Z,84.70
2018-04-17T06:46:50.585Z,84.90
2018-04-17T06:49:18.129Z,85.00
2018-04-17T06:51:45.643Z,84.90
2018-04-17T06:54:13.181Z,84.60
2018-04-17T06:56:41.481Z,85.30
2018-04-17T06:59:09.020Z,85.20
2018-04-17T07:01:37.316Z,85.50
2018-04-17T07:04:04.864Z,85.30
2018-04-17T07:06:33.147Z,85.50
2018-04-17T07:09:00.696Z,85.40
2018-04-17T07:11:28.985Z,85.40
2018-04-17T07:13:56.536Z,85.30
2018-04-17T07:16:24.828Z,85.20
2018-04-17T07:18:52.393Z,85.10
2018-04-17T07:21:19.925Z,85.30
2018-04-17T07:23:48.244Z,86.20
2018-04-17T07:26:15.793Z,85.50
2018-04-17T07:28:43.351Z,85.60
2018-04-17T07:31:10.883Z,85.80
2018-04-17T07:33:39.201Z,86.00
2018-04-17T07:36:06.729Z,85.10
2018-04-17T07:38:35.047Z,85.00
2018-04-17T07:41:02.579Z,84.90
2018-04-17T07:43:30.112Z,84.80
2018-04-17T07:45:57.668Z,84.80
2018-04-17T07:48:38.317Z,84.40
2018-04-17T07:51:05.858Z,83.70
2018-04-17T07:53:33.422Z,83.50
2018-04-17T07:56:00.987Z,83.10
2018-04-17T07:58:28.517Z,82.90
2018-04-17T08:00:56.073Z,82.60
2018-04-17T08:03:24.362Z,82.30
2018-04-17T08:05:51.914Z,82.30
2018-04-17T08:08:19.501Z,81.80
2018-04-17T08:10:47.783Z,80.40
2018-04-17T08:13:16.329Z,80.40
2018-04-17T08:15:43.904Z,80.80
2018-04-17T08:18:11.443Z,80.20
2018-04-17T08:20:39.770Z,80.20
2018-04-17T08:23:07.300Z,80.20
2018-04-17T08:25:34.867Z,79.60
2018-04-17T08:28:02.402Z,79.60
2018-04-17T08:30:29.953Z,79.60
2018-04-17T08:32:57.493Z,79.20
2018-04-17T08:35:25.053Z,78.40
2018-04-17T08:37:52.592Z,77.20
2018-04-17T08:40:20.157Z,77.00
2018-04-17T08:42:47.739Z,77.10
2018-04-17T08:45:15.273Z,76.50
2018-04-17T08:47:42.810Z,76.40
2018-04-17T08:50:10.371Z,75.90
2018-04-17T08:52:37.906Z,75.40
2018-04-17T08:55:05.474Z,74.40
2018-04-17T08:57:33.782Z,75.00
2018-04-17T09:00:01.346Z,74.90
2018-04-17T09:02:28.885Z,74.60
2018-04-17T09:04:56.446Z,73.70
2018-04-17T09:07:23.979Z,73.10
2018-04-17T09:09:51.537Z,72.80
2018-04-17T09:12:19.077Z,72.50
2018-04-17T09:14:46.629Z,72.30
2018-04-17T09:17:14.158Z,71.00
2018-04-17T09:19:41.689Z,71.10
2018-04-17T09:22:09.249Z,70.70
2018-04-17T09:24:36.786Z,70.60
2018-04-17T09:27:04.363Z,70.00
2018-04-17T09:29:31.909Z,68.40
2018-04-17T09:31:59.465Z,66.40
2018-04-17T09:34:26.996Z,67.50
2018-04-17T09:36:54.558Z,67.00
2018-04-17T09:39:22.089Z,67.00
2018-04-17T09:41:49.666Z,66.70
2018-04-17T09:44:17.210Z,66.50
2018-04-17T09:46:44.773Z,65.50
2018-04-17T09:49:12.316Z,65.10
2018-04-17T09:51:39.876Z,64.40
2018-04-17T09:54:07.425Z,62.30
2018-04-17T09:56:34.990Z,62.80
2018-04-17T09:59:02.534Z,58.20
2018-04-17T10:01:30.097Z,59.00
2018-04-17T10:03:57.633Z,58.50
2018-04-17T10:06:25.198Z,58.60
2018-04-17T10:08:52.760Z,58.40
2018-04-17T10:11:20.315Z,58.30
2018-04-17T10:13:47.854Z,58.50
2018-04-17T10:16:15.424Z,57.90
2018-04-17T10:18:42.963Z,57.40
2018-04-17T10:21:10.535Z,57.90
2018-04-17T10:23:38.082Z,57.50
2018-04-17T10:26:05.633Z,56.70
2018-04-17T10:28:33.166Z,54.50
2018-04-17T10:31:00.712Z,55.00
2018-04-17T10:33:28.235Z,54.30
2018-04-17T10:35:55.793Z,53.70
2018-04-17T10:38:23.309Z,54.40
2018-04-17T10:40:51.632Z,53.20
2018-04-17T10:43:19.151Z,53.20
2018-04-17T10:45:47.465Z,52.00
2018-04-17T10:48:14.992Z,52.00
2018-04-17T10:50:43.274Z,52.00
2018-04-17T10:53:11.589Z,51.90
2018-04-17T10:55:39.121Z,52.50
2018-04-17T10:58:06.677Z,51.00
2018-04-17T11:00:34.212Z,51.40
2018-04-17T11:03:01.764Z,51.70
2018-04-17T11:05:29.292Z,51.40
2018-04-17T11:07:56.849Z,51.10
2018-04-17T11:10:24.446Z,51.50
2018-04-17T11:12:52.528Z,51.00
2018-04-17T11:15:20.066Z,50.70
2018-04-17T11:17:47.612Z,51.40
2018-04-17T11:20:15.136Z,50.00
2018-04-17T11:22:42.705Z,49.80
2018-04-17T11:25:10.233Z,49.90
2018-04-17T11:27:38.556Z,49.40
2018-04-17T11:30:06.076Z,49.30
2018-04-17T11:32:34.389Z,48.60
2018-04-17T11:35:01.916Z,48.60
2018-04-17T11:37:30.236Z,48.00
2018-04-17T11:39:57.756Z,48.00
2018-04-17T11:42:26.077Z,48.50
2018-04-17T11:44:53.605Z,48.30
2018-04-17T11:47:21.941Z,47.70
2018-04-17T11:49:49.459Z,47.70
2018-04-17T11:52:16.980Z,47.60
2018-04-17T11:54:45.301Z,47.20
2018-04-17T11:57:12.829Z,46.80
2018-04-17T11:59:41.148Z,46.60
2018-04-17T12:02:08.699Z,46.60
2018-04-17T12:04:36.261Z,46.70
2018-04-17T12:07:03.777Z,46.60
2018-04-17T12:09:32.097Z,47.00
2018-04-17T12:11:59.625Z,46.90
2018-04-17T12:14:27.940Z,46.80
2018-04-17T12:16:55.503Z,46.70
2018-04-17T12:19:23.048Z,46.80
2018-04-17T12:21:50.572Z,46.40
2018-04-17T12:24:18.129Z,46.10
2018-04-17T12:26:45.655Z,45.80
2018-04-17T12:29:13.207Z,44.70
2018-04-17T12:31:40.723Z,43.60
2018-04-17T12:34:09.029Z,42.80
2018-04-17T12:36:36.559Z,42.70
2018-04-17T12:39:04.888Z,42.50
2018-04-17T12:41:32.406Z,42.60
2018-04-17T12:44:00.715Z,41.80
2018-04-17T12:46:28.242Z,41.80
2018-04-17T12:48:56.557Z,41.60
2018-04-17T12:51:24.074Z,41.60
2018-04-17T12:53:52.360Z,40.80
2018-04-17T12:56:20.671Z,40.90
2018-04-17T12:58:48.183Z,40.90
2018-04-17T13:01:16.497Z,40.80
2018-04-17T13:03:44.024Z,40.70
2018-04-17T13:06:12.336Z,40.40
2018-04-17T13:08:39.848Z,40.40
2018-04-17T13:11:07.405Z,40.10
2018-04-17T13:13:34.923Z,39.80
2018-04-17T13:16:02.470Z,39.80
2018-04-17T13:18:29.985Z,39.30
2018-04-17T13:20:57.528Z,39.00
2018-04-17T13:23:25.043Z,39.10
2018-04-17T13:25:52.583Z,38.90
2018-04-17T13:28:20.877Z,38.30
2018-04-17T13:30:48.424Z,38.30
2018-04-17T13:33:16.725Z,37.80
2018-04-17T13:35:44.268Z,37.80
2018-04-17T13:38:11.791Z,38.00
2018-04-17T13:40:39.340Z,37.60
2018-04-17T13:43:06.857Z,38.30
2018-04-17T13:45:34.400Z,37.70
2018-04-17T13:48:02.684Z,37.10
2018-04-17T13:50:31.000Z,37.50
2018-04-17T13:52:58.530Z,37.60
2018-04-17T13:55:26.049Z,36.90
2018-04-17T13:57:53.598Z,36.60
2018-04-17T14:00:21.115Z,36.60
2018-04-17T14:02:48.672Z,36.50
2018-04-17T14:05:16.192Z,36.20
2018-04-17T14:07:43.736Z,36.10
2018-04-17T14:10:11.252Z,36.00
2018-04-17T14:12:38.797Z,35.60
2018-04-17T14:15:07.089Z,35.30
2018-04-17T14:17:34.631Z,35.40
2018-04-17T14:20:02.918Z,34.80
2018-04-17T14:22:30.467Z,34.90
2018-04-17T14:24:58.752Z,35.20
2018-04-17T14:27:27.066Z,34.50
2018-04-17T14:29:54.594Z,34.50
2018-04-17T14:32:22.145Z,34.30
2018-04-17T14:34:50.438Z,34.40
2018-04-17T14:37:17.990Z,34.40
2018-04-17T14:39:45.520Z,33.90
2018-04-17T14:42:13.067Z,34.10
2018-04-17T14:44:40.596Z,34.00
2018-04-17T14:47:08.143Z,33.50
2018-04-17T14:49:35.665Z,33.90
2018-04-17T14:52:03.220Z,34.80
2018-04-17T14:54:30.740Z,33.30
2018-04-17T14:56:58.293Z,32.80
2018-04-17T14:59:25.812Z,32.20
2018-04-17T15:01:54.138Z,31.80
2018-04-17T15:04:21.696Z,31.80
2018-04-17T15:06:49.225Z,31.20
2018-04-17T15:09:17.540Z,31.00
2018-04-17T15:11:45.065Z,31.00
2018-04-17T15:14:12.607Z,30.90
2018-04-17T15:16:40.901Z,30.40
2018-04-17T15:19:09.223Z,30.00
2018-04-17T15:21:36.757Z,30.00
2018-04-17T15:24:04.314Z,30.20
2018-04-17T15:26:31.839Z,30.00
2018-04-17T15:29:00.151Z,30.00
2018-04-17T15:31:27.677Z,29.50
2018-04-17T15:33:56.004Z,29.60
2018-04-17T15:36:23.535Z,29.50
2018-04-17T15:38:51.848Z,30.10
2018-04-17T15:41:19.422Z,30.10
2018-04-17T15:43:46.973Z,30.40
2018-04-17T15:46:14.501Z,30.30
2018-04-17T15:48:45.863Z,30.60
2018-04-17T15:51:13.422Z,30.70
2018-04-17T15:53:40.957Z,30.90
2018-04-17T15:56:10.718Z,30.70
2018-04-17T15:58:38.249Z,30.70
2018-04-17T16:01:05.810Z,30.40
2018-04-17T16:03:34.545Z,30.70
2018-04-17T16:06:03.165Z,31.10
2018-04-17T16:08:31.769Z,32.00
2018-04-17T16:11:00.359Z,31.30
2018-04-17T16:13:28.995Z,31.00
2018-04-17T16:15:56.797Z,31.00
2018-04-17T16:18:24.330Z,30.90
2018-04-17T16:20:51.885Z,30.50
2018-04-17T16:23:19.417Z,30.40
2018-04-17T16:25:46.969Z,30.50
2018-04-17T16:28:14.510Z,31.00
2018-04-17T16:30:42.075Z,31.20
2018-04-17T16:33:09.615Z,31.90
2018-04-17T16:35:37.178Z,32.20
2018-04-17T16:38:04.716Z,32.70
2018-04-17T16:40:32.277Z,32.80
2018-04-17T16:42:59.809Z,33.10
2018-04-17T16:45:27.370Z,33.60
2018-04-17T16:47:54.904Z,33.80
2018-04-17T16:50:22.468Z,34.30
2018-04-17T16:52:49.992Z,34.70
2018-04-17T16:55:19.202Z,34.60
2018-04-17T16:57:46.737Z,35.20
2018-04-17T17:00:14.306Z,34.90
2018-04-17T17:02:41.839Z,35.30
2018-04-17T17:05:09.405Z,35.50
2018-04-17T17:07:36.942Z,35.60
2018-04-17T17:10:04.519Z,35.90
2018-04-17T17:12:32.055Z,36.20
2018-04-17T17:14:59.590Z,36.40
2018-04-17T17:17:27.142Z,36.80
2018-04-17T17:19:54.673Z,37.30
2018-04-17T17:22:22.227Z,37.80
2018-04-17T17:24:49.770Z,38.50
2018-04-17T17:27:17.333Z,38.70
2018-04-17T17:29:45.636Z,39.50
2018-04-17T17:32:13.192Z,39.70
2018-04-17T17:34:40.719Z,39.80
2018-04-17T17:37:08.265Z,40.10
2018-04-17T17:39:35.824Z,40.30
2018-04-17T17:42:03.381Z,40.90
2018-04-17T17:44:30.907Z,41.50
2018-04-17T17:46:59.226Z,42.30
2018-04-17T17:49:26.760Z,42.20
2018-04-17T17:51:54.313Z,42.60
2018-04-17T17:54:22.613Z,43.00
2018-04-17T17:56:50.176Z,42.90
2018-04-17T17:59:17.972Z,43.30
2018-04-17T18:01:45.510Z,43.70
2018-04-17T18:04:13.060Z,44.10
2018-04-17T18:06:40.592Z,44.50
2018-04-17T18:09:08.917Z,45.30
2018-04-17T18:11:36.456Z,45.30
2018-04-17T18:14:04.011Z,45.90
2018-04-17T18:16:31.551Z,46.40
2018-04-17T18:18:59.874Z,47.20
2018-04-17T18:21:27.413Z,47.20
2018-04-17T18:23:54.965Z,47.50
2018-04-17T18:26:22.506Z,47.80
2018-04-17T18:28:50.825Z,48.20
2018-04-17T18:31:18.365Z,48.20
2018-04-17T18:33:45.921Z,48.50
2018-04-17T18:36:13.461Z,48.70
2018-04-17T18:38:41.788Z,49.00
2018-04-17T18:41:09.315Z,48.90
2018-04-17T18:43:37.685Z,49.40
2018-04-17T18:46:05.184Z,49.40
2018-04-17T18:48:32.743Z,50.90
2018-04-17T18:51:00.285Z,50.60
2018-04-17T18:53:27.837Z,50.90
2018-04-17T18:55:55.374Z,51.10
2018-04-17T18:58:22.931Z,51.30
2018-04-17T19:00:50.513Z,51.40
2018-04-17T19:03:18.813Z,51.60
2018-04-17T19:05:46.372Z,51.50
2018-04-17T19:08:13.915Z,51.70
2018-04-17T19:10:41.468Z,51.70
2018-04-17T19:13:09.765Z,52.00
2018-04-17T19:15:37.319Z,51.90
2018-04-17T19:18:04.851Z,52.10
2018-04-17T19:20:33.174Z,52.80
2018-04-17T19:23:00.708Z,52.80
2018-04-17T19:25:29.108Z,53.20
2018-04-17T19:27:56.633Z,53.50
2018-04-17T19:30:24.943Z,53.80
2018-04-17T19:32:52.924Z,53.70
2018-04-17T19:35:20.485Z,53.90
2018-04-17T19:37:48.026Z,54.00
2018-04-17T19:40:15.810Z,54.30
2018-04-17T19:42:43.342Z,54.40
2018-04-17T19:45:11.713Z,54.60
2018-04-17T19:47:40.067Z,54.90
2018-04-17T19:50:08.429Z,55.10
2018-04-17T19:52:35.978Z,55.10
2018-04-17T19:55:03.601Z,55.10
2018-04-17T19:57:31.922Z,55.30
2018-04-17T19:59:59.547Z,55.30
2018-04-17T20:02:27.073Z,55.60
2018-04-17T20:04:54.774Z,55.80
2018-04-17T20:07:22.341Z,55.90
2018-04-17T20:09:50.021Z,55.80
2018-04-17T20:12:17.589Z,55.80
2018-04-17T20:14:45.822Z,55.90
2018-04-17T20:17:13.469Z,55.80
2018-04-17T20:19:41.550Z,55.90
2018-04-17T20:22:09.217Z,56.10
2018-04-17T20:24:37.546Z,56.40
2018-04-17T20:27:05.096Z,56.30
2018-04-17T20:29:33.022Z,56.40
2018-04-17T20:32:01.944Z,56.10
2018-04-17T20:34:29.468Z,56.50
2018-04-17T20:36:57.804Z,56.70
2018-04-17T20:39:25.360Z,56.90
2018-04-17T20:41:52.919Z,57.00
2018-04-17T20:44:20.721Z,57.20
2018-04-17T20:46:48.285Z,57.50
2018-04-17T20:49:15.817Z,57.80
2018-04-17T20:51:43.364Z,58.10
2018-04-17T20:54:10.883Z,58.40
2018-04-17T20:56:39.201Z,58.70
2018-04-17T20:59:06.726Z,58.60
2018-04-17T21:01:35.044Z,59.30
2018-04-17T21:04:02.568Z,59.20
2018-04-17T21:06:30.856Z,59.60
2018-04-17T21:08:58.400Z,59.50
2018-04-17T21:11:26.683Z,60.00
2018-04-17T21:13:54.999Z,59.90
2018-04-17T21:16:22.524Z,59.90
2018-04-17T21:18:50.840Z,60.30
2018-04-17T21:21:18.364Z,60.20
2018-04-17T21:23:46.684Z,60.60
2018-04-17T21:26:14.211Z,60.50
2018-04-17T21:28:41.757Z,60.80
2018-04-17T21:31:10.043Z,60.60
2018-04-17T21:33:37.593Z,60.50
2018-04-17T21:36:05.884Z,61.10
2018-04-17T21:38:33.435Z,61.00
2018-04-17T21:41:01.720Z,61.60
2018-04-17T21:43:29.268Z,61.50
2018-04-17T21:45:57.561Z,61.80
2018-04-17T21:48:25.108Z,61.70
2018-04-17T21:50:53.406Z,62.50
2018-04-17T21:53:20.954Z,62.40
2018-04-17T21:55:48.495Z,62.80
2018-04-17T21:58:16.808Z,63.40
2018-04-17T22:00:44.328Z,63.30
2018-04-17T22:03:11.872Z,63.60
2018-04-17T22:05:39.395Z,63.60
2018-04-17T22:08:06.917Z,63.40
2018-04-17T22:10:35.224Z,63.30
2018-04-17T22:13:02.753Z,63.20
2018-04-17T22:15:31.076Z,63.50
2018-04-17T22:17:58.605Z,63.50
2018-04-17T22:20:26.923Z,64.40
2018-04-17T22:22:54.465Z,64.30
2018-04-17T22:25:22.016Z,64.30
2018-04-17T22:27:49.548Z,64.20
2018-04-17T22:30:17.855Z,64.30
2018-04-17T22:32:45.378Z,64.30
2018-04-17T22:35:13.371Z,64.50
2018-04-17T22:37:40.904Z,65.40
2018-04-17T22:40:08.447Z,65.00
2018-04-17T22:42:35.969Z,65.30
2018-04-17T22:45:03.532Z,65.30
2018-04-17T22:47:31.057Z,65.50
2018-04-17T22:49:59.371Z,65.60
2018-04-17T22:52:26.896Z,65.60
2018-04-17T22:54:55.211Z,66.30
2018-04-17T22:57:22.745Z,66.20
2018-04-17T22:59:51.056Z,66.80
2018-04-17T23:02:18.581Z,66.70
2018-04-17T23:04:46.141Z,67.40
2018-04-17T23:07:14.432Z,67.80
2018-04-17T23:09:41.971Z,67.70
2018-04-17T23:12:10.304Z,68.10
2018-04-17T23:14:37.869Z,68.10
2018-04-17T23:17:05.388Z,68.20
2018-04-17T23:19:32.931Z,68.20
2018-04-17T23:22:01.226Z,68.50
2018-04-17T23:24:28.748Z,68.40
2018-04-17T23:26:56.299Z,68.50
2018-04-17T23:29:23.845Z,68.10
2018-04-17T23:31:51.389Z,67.50
2018-04-17T23:34:18.910Z,68.80
2018-04-17T23:36:47.226Z,68.90
2018-04-17T23:39:14.748Z,68.90
2018-04-17T23:41:43.051Z,69.20
2018-04-17T23:44:10.577Z,69.10
2018-04-17T23:46:38.912Z,68.60
2018-04-17T23:49:06.433Z,68.50
2018-04-17T23:51:33.989Z,68.60
2018-04-17T23:54:02.280Z,68.80
2018-04-17T23:56:29.875Z,68.70
2018-04-17T23:58:57.391Z,68.90
